Time;durP1;ratioP1;P1;durP2;ratioP2;P2;SDS_P1;SDS_P2;PMS_P1;PMS_P2;Temp;Humidity;BMP_temperature;BMP_pressure;BME280_temperature;BME280_humidity;BME280_pressure;Samples;Min_cycle;Max_cycle;Signal;HPM_P1;HPM_P2
2022/07/20 00:02:10;;;;;;;;;;;25.20;85.80;;;;;;5074944;28;19916;-70
2022/07/20 00:04:35;;;;;;;;;;;25.20;85.70;;;;;;5074205;28;19913;-70
2022/07/20 00:07:01;;;;;;;;;;;25.20;85.70;;;;;;5074678;28;19909;-69
2022/07/20 00:12:11;;;;;;;;;;;25.20;85.70;;;;;;5074423;28;19966;-70
2022/07/20 00:14:36;;;;;;;;;;;25.20;85.70;;;;;;5074457;28;19917;-70
2022/07/20 00:17:02;;;;;;;;;;;25.20;85.70;;;;;;5074165;28;19999;-70
2022/07/20 00:19:27;;;;;;;;;;;25.20;85.60;;;;;;5074418;28;19954;-70
2022/07/20 00:21:53;;;;;;;;;;;25.20;85.70;;;;;;5074144;28;19970;-70
2022/07/20 00:24:18;;;;;;;;;;;25.20;85.60;;;;;;5074418;28;19908;-69
2022/07/20 00:26:44;;;;;;;;;;;25.20;85.70;;;;;;5074290;28;19909;-70
2022/07/20 00:29:09;;;;;;;;;;;25.20;85.60;;;;;;5055992;28;20004;-70
2022/07/20 00:31:35;;;;;;;;;;;25.20;85.60;;;;;;5074159;28;19908;-70
2022/07/20 00:34:00;;;;;;;;;;;25.20;85.70;;;;;;5074235;28;20414;-68
2022/07/20 00:36:26;;;;;;;;;;;25.20;85.60;;;;;;5074277;28;19962;-70
2022/07/20 00:38:52;;;;;;;;;;;25.20;85.60;;;;;;5074483;28;19999;-70
2022/07/20 00:41:17;;;;;;;;;;;25.20;85.60;;;;;;5074155;28;20362;-70
2022/07/20 00:44:12;;;;;;;;;;;25.20;85.60;;;;;;5074134;28;20290;-70
2022/07/20 00:46:39;;;;;;;;;;;25.20;85.70;;;;;;5064938;28;20002;-70
2022/07/20 00:49:05;;;;;;;;;;;25.20;85.60;;;;;;5073820;28;19932;-69
2022/07/20 00:51:31;;;;;;;;;;;25.20;85.60;;;;;;5074084;28;19908;-70
2022/07/20 00:53:57;;;;;;;;;;;25.20;85.60;;;;;;5074031;28;19913;-70
2022/07/20 00:56:23;;;;;;;;;;;25.20;85.60;;;;;;5056071;28;19919;-71
2022/07/20 00:58:49;;;;;;;;;;;25.20;85.60;;;;;;5073887;28;19924;-70
2022/07/20 01:01:14;;;;;;;;;;;25.20;85.60;;;;;;5073658;28;19980;-70
2022/07/20 01:03:40;;;;;;;;;;;25.20;85.60;;;;;;5073569;28;19912;-70
2022/07/20 01:06:06;;;;;;;;;;;25.20;85.50;;;;;;5073571;28;19908;-70
2022/07/20 01:08:32;;;;;;;;;;;25.20;85.60;;;;;;5073898;28;19908;-69
2022/07/20 01:10:57;;;;;;;;;;;25.20;85.60;;;;;;5056081;28;19908;-70
2022/07/20 01:13:23;;;;;;;;;;;25.20;85.60;;;;;;5055816;28;20341;-70
2022/07/20 01:15:49;;;;;;;;;;;25.20;85.50;;;;;;5073902;28;19913;-70
2022/07/20 01:18:15;;;;;;;;;;;25.20;85.60;;;;;;5076982;28;19908;-70
2022/07/20 01:20:46;;;;;;;;;;;25.20;85.60;;;;;;5077839;28;20274;-70
2022/07/20 01:23:11;;;;;;;;;;;25.20;85.60;;;;;;5077550;28;19915;-70
2022/07/20 01:25:37;;;;;;;;;;;25.20;85.60;;;;;;5077338;28;19909;-70
2022/07/20 01:28:06;;;;;;;;;;;25.20;85.60;;;;;;5077610;28;19912;-69
2022/07/20 01:30:32;;;;;;;;;;;25.20;85.60;;;;;;5059319;28;19938;-69
2022/07/20 01:32:57;;;;;;;;;;;25.20;85.60;;;;;;5077263;28;19916;-70
2022/07/20 01:35:23;;;;;;;;;;;25.10;85.50;;;;;;5077499;28;19916;-70
2022/07/20 01:37:48;;;;;;;;;;;25.20;85.60;;;;;;5077163;28;19938;-70
2022/07/20 01:40:14;;;;;;;;;;;25.10;85.50;;;;;;5077108;28;19909;-70
2022/07/20 01:42:39;;;;;;;;;;;25.10;85.50;;;;;;5077388;28;20355;-70
2022/07/20 01:45:05;;;;;;;;;;;25.20;85.60;;;;;;5077040;28;19909;-70
2022/07/20 01:47:30;;;;;;;;;;;25.10;85.50;;;;;;5077528;28;19963;-70
2022/07/20 01:49:56;;;;;;;;;;;25.10;85.50;;;;;;5076889;28;19908;-70
2022/07/20 01:52:21;;;;;;;;;;;25.10;85.50;;;;;;5076774;28;19912;-70
2022/07/20 01:54:47;;;;;;;;;;;25.10;85.50;;;;;;5076771;28;19973;-69
2022/07/20 01:57:12;;;;;;;;;;;25.10;85.50;;;;;;5076701;28;19979;-70
2022/07/20 01:59:38;;;;;;;;;;;25.10;85.50;;;;;;5076608;28;20375;-69
2022/07/20 02:02:03;;;;;;;;;;;25.10;85.50;;;;;;5076604;28;19909;-70
2022/07/20 02:04:29;;;;;;;;;;;25.10;85.50;;;;;;5076955;28;19909;-70
2022/07/20 02:06:54;;;;;;;;;;;25.10;85.50;;;;;;5059005;28;19908;-70
2022/07/20 02:09:20;;;;;;;;;;;25.10;85.50;;;;;;5076850;28;20270;-70
2022/07/20 02:11:45;;;;;;;;;;;25.10;85.50;;;;;;5058862;28;19908;-70
2022/07/20 02:14:11;;;;;;;;;;;25.10;85.50;;;;;;5076489;28;19995;-71
2022/07/20 02:16:36;;;;;;;;;;;25.10;85.50;;;;;;5058801;28;19966;-69
2022/07/20 02:19:02;;;;;;;;;;;25.10;85.50;;;;;;5076715;28;19908;-70
2022/07/20 02:21:29;;;;;;;;;;;25.10;85.70;;;;;;5076925;28;20343;-70
2022/07/20 02:23:55;;;;;;;;;;;25.10;85.50;;;;;;5076737;28;19909;-70
2022/07/20 02:26:21;;;;;;;;;;;25.10;85.50;;;;;;5076665;28;19908;-70
2022/07/20 02:28:47;;;;;;;;;;;25.10;85.50;;;;;;5058236;28;19916;-70
2022/07/20 02:31:13;;;;;;;;;;;25.10;85.50;;;;;;5076514;28;19912;-70
2022/07/20 02:33:39;;;;;;;;;;;25.10;85.50;;;;;;5058470;28;20011;-70
2022/07/20 02:36:05;;;;;;;;;;;25.10;85.50;;;;;;5076474;28;19952;-70
2022/07/20 02:38:30;;;;;;;;;;;25.10;85.50;;;;;;5076514;28;19914;-70
2022/07/20 02:40:56;;;;;;;;;;;25.10;85.50;;;;;;5092030;28;19916;-70
2022/07/20 02:43:21;;;;;;;;;;;25.10;85.50;;;;;;5076084;28;19908;-70
2022/07/20 02:45:47;;;;;;;;;;;25.10;85.50;;;;;;5058388;28;20424;-70
2022/07/20 02:48:12;;;;;;;;;;;25.10;85.50;;;;;;5076281;28;19919;-70
2022/07/20 02:50:39;;;;;;;;;;;25.10;85.50;;;;;;5058350;28;20351;-70
2022/07/20 02:53:05;;;;;;;;;;;25.10;85.50;;;;;;5058079;28;19912;-69
2022/07/20 02:55:31;;;;;;;;;;;25.10;85.50;;;;;;5076070;28;20042;-70
2022/07/20 02:57:57;;;;;;;;;;;25.10;85.50;;;;;;5075743;28;20327;-70
2022/07/20 03:00:22;;;;;;;;;;;25.10;85.50;;;;;;5075580;28;20083;-70
2022/07/20 03:02:48;;;;;;;;;;;25.10;85.50;;;;;;5075763;28;19908;-70
2022/07/20 03:05:14;;;;;;;;;;;25.10;85.40;;;;;;5057881;28;19909;-70
2022/07/20 03:07:39;;;;;;;;;;;25.10;85.40;;;;;;5075530;28;19916;-70
2022/07/20 03:10:05;;;;;;;;;;;25.10;85.50;;;;;;5075375;28;19915;-70
2022/07/20 03:12:31;;;;;;;;;;;25.10;85.40;;;;;;5057587;28;20007;-70
2022/07/20 03:14:57;;;;;;;;;;;25.10;85.50;;;;;;5075604;28;20011;-70
2022/07/20 03:17:22;;;;;;;;;;;25.10;85.40;;;;;;5057706;28;20026;-70
2022/07/20 03:19:48;;;;;;;;;;;25.10;85.40;;;;;;5075215;28;19908;-70
2022/07/20 03:22:14;;;;;;;;;;;25.10;85.40;;;;;;5075228;28;20402;-70
2022/07/20 03:24:39;;;;;;;;;;;25.10;85.50;;;;;;5075339;28;19912;-70
2022/07/20 03:27:05;;;;;;;;;;;25.10;85.40;;;;;;5075341;28;19940;-70
2022/07/20 03:29:30;;;;;;;;;;;25.10;85.50;;;;;;5075634;28;19995;-70
2022/07/20 03:31:56;;;;;;;;;;;25.10;85.50;;;;;;5074781;28;19912;-70
2022/07/20 03:34:21;;;;;;;;;;;25.10;85.50;;;;;;5075054;28;19971;-70
2022/07/20 03:36:48;;;;;;;;;;;25.10;85.50;;;;;;5075137;28;19909;-70
2022/07/20 03:39:14;;;;;;;;;;;25.10;85.50;;;;;;5056492;28;19915;-69
2022/07/20 03:41:40;;;;;;;;;;;25.10;85.50;;;;;;5057149;28;19912;-70
2022/07/20 03:44:05;;;;;;;;;;;25.10;85.40;;;;;;5074735;28;20338;-69
2022/07/20 03:46:30;;;;;;;;;;;25.10;85.40;;;;;;5074565;28;19908;-70
2022/07/20 03:48:56;;;;;;;;;;;25.10;85.40;;;;;;5074835;28;19915;-70
2022/07/20 03:51:21;;;;;;;;;;;25.10;85.50;;;;;;5056934;28;19980;-70
2022/07/20 03:53:47;;;;;;;;;;;25.10;85.50;;;;;;5074359;28;19912;-70
2022/07/20 03:56:12;;;;;;;;;;;25.10;85.40;;;;;;5056800;28;19916;-70
2022/07/20 03:58:38;;;;;;;;;;;25.10;85.40;;;;;;5074769;28;19927;-69
2022/07/20 04:01:03;;;;;;;;;;;25.10;85.40;;;;;;5056540;28;19973;-70
2022/07/20 04:03:29;;;;;;;;;;;25.10;85.40;;;;;;5056730;28;19915;-70
2022/07/20 04:05:54;;;;;;;;;;;25.10;85.40;;;;;;5074349;28;19999;-70
2022/07/20 04:08:20;;;;;;;;;;;25.10;85.40;;;;;;5074567;28;19912;-70
2022/07/20 04:10:45;;;;;;;;;;;25.10;85.30;;;;;;5074563;28;20355;-70
2022/07/20 04:13:11;;;;;;;;;;;25.10;85.40;;;;;;5074055;28;19920;-69
2022/07/20 04:15:36;;;;;;;;;;;25.10;85.30;;;;;;5074699;28;19951;-69
2022/07/20 04:18:02;;;;;;;;;;;25.10;85.40;;;;;;5074108;28;19908;-69
2022/07/20 04:20:27;;;;;;;;;;;25.20;85.50;;;;;;5074539;28;20007;-70
2022/07/20 04:22:52;;;;;;;;;;;25.20;85.40;;;;;;5074078;28;19999;-70
2022/07/20 04:25:19;;;;;;;;;;;25.20;85.40;;;;;;5073828;28;20379;-69
2022/07/20 04:27:44;;;;;;;;;;;25.20;85.40;;;;;;5073943;28;20430;-69
2022/07/20 04:30:10;;;;;;;;;;;25.20;85.30;;;;;;5074285;28;19948;-70
2022/07/20 04:32:35;;;;;;;;;;;25.20;85.20;;;;;;5074187;28;20288;-69
2022/07/20 04:35:01;;;;;;;;;;;25.20;85.20;;;;;;5073949;28;20385;-70
2022/07/20 04:37:26;;;;;;;;;;;25.30;85.20;;;;;;5074080;28;19912;-70
2022/07/20 04:39:52;;;;;;;;;;;25.30;85.00;;;;;;5073758;28;19915;-70
2022/07/20 04:42:17;;;;;;;;;;;25.30;85.10;;;;;;5074031;28;19909;-69
2022/07/20 04:44:43;;;;;;;;;;;25.30;85.10;;;;;;5073484;28;19995;-69
2022/07/20 04:47:08;;;;;;;;;;;25.30;85.20;;;;;;5073906;28;19909;-70
2022/07/20 04:49:34;;;;;;;;;;;25.30;85.10;;;;;;5073515;28;20274;-70
2022/07/20 04:52:00;;;;;;;;;;;25.30;85.10;;;;;;5055742;28;19913;-70
2022/07/20 04:54:25;;;;;;;;;;;25.30;85.10;;;;;;5073830;28;20355;-69
2022/07/20 04:56:51;;;;;;;;;;;25.30;85.10;;;;;;5074083;28;19912;-70
2022/07/20 04:59:16;;;;;;;;;;;25.30;85.10;;;;;;5073566;28;19920;-70
2022/07/20 05:01:42;;;;;;;;;;;25.30;85.10;;;;;;5073764;28;20355;-70
2022/07/20 05:04:07;;;;;;;;;;;25.30;85.10;;;;;;5073732;28;19909;-69
2022/07/20 05:06:33;;;;;;;;;;;25.30;85.00;;;;;;5055665;28;20313;-70
2022/07/20 05:08:58;;;;;;;;;;;25.30;85.10;;;;;;5073351;28;19908;-70
2022/07/20 05:11:26;;;;;;;;;;;25.30;85.10;;;;;;5073622;28;20079;-70
2022/07/20 05:13:52;;;;;;;;;;;25.30;85.10;;;;;;5073330;28;19913;-70
2022/07/20 05:16:18;;;;;;;;;;;25.40;85.20;;;;;;5055598;28;20006;-70
2022/07/20 05:18:43;;;;;;;;;;;25.40;85.20;;;;;;5073302;28;20351;-70
2022/07/20 05:21:08;;;;;;;;;;;25.40;85.30;;;;;;5055284;28;19916;-69
2022/07/20 05:23:34;;;;;;;;;;;25.40;85.20;;;;;;5073205;28;19909;-70
2022/07/20 05:26:00;;;;;;;;;;;25.40;85.10;;;;;;5073330;28;19908;-70
2022/07/20 05:28:25;;;;;;;;;;;25.40;85.30;;;;;;5055488;28;19958;-70
2022/07/20 05:30:51;;;;;;;;;;;25.30;85.10;;;;;;5073173;28;19909;-71
2022/07/20 05:33:16;;;;;;;;;;;25.40;85.30;;;;;;5073374;28;20418;-70
2022/07/20 05:35:42;;;;;;;;;;;25.40;85.20;;;;;;5073120;28;20371;-70
2022/07/20 05:38:08;;;;;;;;;;;25.40;85.30;;;;;;5073319;28;20339;-70
2022/07/20 05:40:33;;;;;;;;;;;25.40;85.80;;;;;;5073498;28;20256;-70
2022/07/20 05:42:59;;;;;;;;;;;25.40;85.30;;;;;;5055209;28;19915;-70
2022/07/20 05:45:24;;;;;;;;;;;25.40;85.30;;;;;;5072857;28;19931;-70
2022/07/20 05:47:49;;;;;;;;;;;25.40;85.30;;;;;;5073165;28;19908;-70
2022/07/20 05:50:15;;;;;;;;;;;25.40;85.30;;;;;;5072912;28;19913;-70
2022/07/20 05:52:40;;;;;;;;;;;25.40;85.30;;;;;;5055143;28;19920;-70
2022/07/20 05:55:07;;;;;;;;;;;25.40;85.30;;;;;;5073152;28;19912;-70
2022/07/20 05:57:33;;;;;;;;;;;25.40;85.30;;;;;;5055114;28;20286;-70
2022/07/20 05:59:58;;;;;;;;;;;25.40;85.30;;;;;;5073009;28;19924;-70
2022/07/20 06:02:24;;;;;;;;;;;25.40;85.30;;;;;;5073120;28;19962;-71
2022/07/20 06:04:49;;;;;;;;;;;25.40;85.30;;;;;;5058396;28;19919;-71
2022/07/20 06:07:15;;;;;;;;;;;25.40;85.30;;;;;;5076410;28;20321;-70
2022/07/20 06:09:40;;;;;;;;;;;25.40;85.30;;;;;;5077069;28;19932;-70
2022/07/20 06:12:06;;;;;;;;;;;25.40;85.30;;;;;;5076300;28;19913;-70
2022/07/20 06:14:31;;;;;;;;;;;25.40;85.40;;;;;;5058633;28;20002;-70
2022/07/20 06:16:57;;;;;;;;;;;25.40;85.40;;;;;;5076045;28;19916;-70
2022/07/20 06:19:22;;;;;;;;;;;25.40;85.40;;;;;;5058512;28;19917;-71
2022/07/20 06:21:48;;;;;;;;;;;25.40;85.40;;;;;;5076159;28;20340;-71
2022/07/20 06:24:14;;;;;;;;;;;25.40;85.30;;;;;;5076227;28;19913;-70
2022/07/20 06:26:40;;;;;;;;;;;25.40;85.40;;;;;;5076190;28;19916;-70
2022/07/20 06:29:05;;;;;;;;;;;25.40;85.40;;;;;;5076156;28;19908;-71
2022/07/20 06:31:31;;;;;;;;;;;25.40;85.50;;;;;;5057985;28;20267;-71
2022/07/20 06:33:56;;;;;;;;;;;25.40;85.40;;;;;;5076061;28;20011;-71
2022/07/20 06:36:22;;;;;;;;;;;25.40;85.40;;;;;;5075412;28;19913;-71
2022/07/20 06:38:47;;;;;;;;;;;25.50;85.50;;;;;;5075638;28;19909;-71
2022/07/20 06:41:13;;;;;;;;;;;25.40;85.40;;;;;;5075610;28;20335;-70
2022/07/20 06:43:38;;;;;;;;;;;25.40;85.50;;;;;;5058234;28;19912;-70
2022/07/20 06:46:04;;;;;;;;;;;25.50;85.50;;;;;;5057542;28;20351;-71
2022/07/20 06:48:29;;;;;;;;;;;25.50;85.50;;;;;;5057865;28;19915;-71
2022/07/20 06:50:55;;;;;;;;;;;25.50;85.50;;;;;;5075704;28;19970;-71
2022/07/20 06:53:20;;;;;;;;;;;25.50;85.50;;;;;;5075358;28;20018;-70
2022/07/20 06:55:46;;;;;;;;;;;25.50;85.60;;;;;;5057825;28;20381;-72
2022/07/20 06:58:11;;;;;;;;;;;25.50;85.60;;;;;;5075568;28;19908;-70
2022/07/20 07:00:37;;;;;;;;;;;25.50;85.60;;;;;;5057734;28;20355;-71
2022/07/20 07:03:03;;;;;;;;;;;25.40;85.50;;;;;;5075523;28;20002;-71
2022/07/20 07:05:28;;;;;;;;;;;25.50;85.60;;;;;;5075281;28;19915;-71
2022/07/20 07:07:54;;;;;;;;;;;25.50;85.60;;;;;;5075329;28;19999;-71
2022/07/20 07:10:19;;;;;;;;;;;25.50;85.60;;;;;;5075119;28;19931;-70
2022/07/20 07:12:45;;;;;;;;;;;25.50;85.60;;;;;;5074951;28;19967;-70
2022/07/20 07:15:10;;;;;;;;;;;25.50;85.60;;;;;;5074085;28;19913;-70
2022/07/20 07:17:36;;;;;;;;;;;25.50;85.60;;;;;;5075225;28;20339;-70
2022/07/20 07:20:02;;;;;;;;;;;25.50;85.70;;;;;;5074806;28;20342;-70
2022/07/20 07:22:28;;;;;;;;;;;25.50;85.60;;;;;;5074826;28;19962;-70
2022/07/20 07:24:54;;;;;;;;;;;25.50;85.70;;;;;;5074976;28;19963;-70
2022/07/20 07:27:20;;;;;;;;;;;25.50;85.60;;;;;;5074713;28;19909;-70
2022/07/20 07:29:46;;;;;;;;;;;25.50;85.60;;;;;;5074627;28;19951;-70
2022/07/20 07:32:12;;;;;;;;;;;25.50;85.60;;;;;;5074618;28;19967;-70
2022/07/20 07:34:37;;;;;;;;;;;25.50;85.70;;;;;;5074813;28;19913;-70
2022/07/20 07:37:03;;;;;;;;;;;25.50;85.60;;;;;;5074644;28;19912;-70
2022/07/20 07:39:28;;;;;;;;;;;25.50;85.70;;;;;;5074473;28;20402;-70
2022/07/20 07:41:54;;;;;;;;;;;25.50;85.60;;;;;;5074610;28;19908;-70
2022/07/20 07:44:19;;;;;;;;;;;25.50;85.60;;;;;;5056589;28;20038;-70
2022/07/20 07:46:45;;;;;;;;;;;25.50;85.60;;;;;;5074640;28;19916;-70
2022/07/20 07:49:11;;;;;;;;;;;25.50;85.70;;;;;;5074805;28;19975;-70
2022/07/20 07:51:37;;;;;;;;;;;25.50;85.70;;;;;;5074652;28;19985;-70
2022/07/20 07:54:02;;;;;;;;;;;25.50;85.70;;;;;;5074440;28;19916;-70
2022/07/20 07:56:28;;;;;;;;;;;25.50;85.70;;;;;;5074234;28;20256;-70
2022/07/20 07:58:53;;;;;;;;;;;25.50;85.80;;;;;;5056231;28;19920;-70
2022/07/20 08:01:19;;;;;;;;;;;25.50;85.70;;;;;;5074098;28;19908;-70
2022/07/20 08:03:45;;;;;;;;;;;25.50;85.70;;;;;;5073970;28;19932;-70
2022/07/20 08:06:10;;;;;;;;;;;25.50;85.70;;;;;;5074291;28;19947;-69
2022/07/20 08:08:36;;;;;;;;;;;25.50;85.70;;;;;;5073816;28;19908;-70
2022/07/20 08:11:02;;;;;;;;;;;25.50;85.70;;;;;;5074644;28;19909;-70
2022/07/20 08:13:28;;;;;;;;;;;25.50;85.70;;;;;;5056299;28;19919;-70
2022/07/20 08:15:54;;;;;;;;;;;25.50;85.70;;;;;;5056294;28;19913;-69
2022/07/20 08:18:19;;;;;;;;;;;25.50;85.70;;;;;;5074462;28;20274;-70
2022/07/20 08:20:45;;;;;;;;;;;25.50;85.70;;;;;;5074153;28;19909;-69
2022/07/20 08:23:10;;;;;;;;;;;25.50;85.70;;;;;;5056262;28;19908;-68
2022/07/20 08:25:36;;;;;;;;;;;25.50;85.70;;;;;;5073579;28;19991;-69
2022/07/20 08:28:09;;;;;;;;;;;25.50;85.70;;;;;;5073879;28;19996;-69
2022/07/20 08:30:34;;;;;;;;;;;25.50;85.80;;;;;;5074042;28;20003;-69
2022/07/20 08:32:59;;;;;;;;;;;25.50;85.80;;;;;;5056046;28;20003;-69
2022/07/20 08:35:25;;;;;;;;;;;25.50;85.80;;;;;;5073734;28;20408;-70
2022/07/20 08:37:50;;;;;;;;;;;25.50;85.80;;;;;;5056059;28;20003;-70
2022/07/20 08:40:16;;;;;;;;;;;25.50;85.80;;;;;;5073668;28;20011;-70
2022/07/20 08:42:42;;;;;;;;;;;25.50;85.70;;;;;;5073564;28;19909;-69
2022/07/20 08:45:09;;;;;;;;;;;25.50;85.80;;;;;;5073916;28;19916;-69
2022/07/20 08:47:37;;;;;;;;;;;25.50;85.80;;;;;;5073425;28;20363;-70
2022/07/20 08:50:04;;;;;;;;;;;25.50;85.80;;;;;;5073690;28;19919;-70
2022/07/20 08:52:30;;;;;;;;;;;25.50;85.80;;;;;;5073640;28;19995;-70
2022/07/20 08:54:55;;;;;;;;;;;25.50;85.80;;;;;;5073423;28;19924;-70
2022/07/20 08:57:21;;;;;;;;;;;25.50;85.80;;;;;;5074032;28;20271;-70
2022/07/20 08:59:47;;;;;;;;;;;25.50;85.90;;;;;;5073414;28;19973;-70
2022/07/20 09:02:12;;;;;;;;;;;25.50;85.90;;;;;;5073602;28;19909;-70
2022/07/20 09:04:55;;;;;;;;;;;25.50;85.80;;;;;;5073595;28;19915;-70
2022/07/20 09:07:37;;;;;;;;;;;25.50;85.80;;;;;;5073246;28;19908;-70
2022/07/20 09:10:03;;;;;;;;;;;25.50;85.80;;;;;;5073341;28;19909;-70
2022/07/20 09:12:29;;;;;;;;;;;25.50;85.90;;;;;;5073317;28;19919;-70
2022/07/20 09:14:54;;;;;;;;;;;25.50;85.90;;;;;;5073160;28;19995;-70
2022/07/20 09:17:21;;;;;;;;;;;25.50;85.80;;;;;;5055361;28;19958;-70
2022/07/20 09:19:55;;;;;;;;;;;25.50;85.90;;;;;;5072770;28;20007;-70
2022/07/20 09:22:32;;;;;;;;;;;25.50;85.80;;;;;;5055395;28;19957;-70
2022/07/20 09:25:07;;;;;;;;;;;25.50;85.80;;;;;;5072932;28;19909;-70
2022/07/20 09:27:33;;;;;;;;;;;25.50;85.90;;;;;;5072985;28;19912;-70
2022/07/20 09:30:07;;;;;;;;;;;25.50;85.80;;;;;;5073366;28;19908;-69
2022/07/20 09:32:47;;;;;;;;;;;25.50;85.90;;;;;;5073208;28;20007;-69
2022/07/20 09:35:13;;;;;;;;;;;25.50;85.90;;;;;;5055354;28;19918;-69
2022/07/20 09:37:38;;;;;;;;;;;25.50;85.90;;;;;;5073893;28;19908;-71
2022/07/20 09:40:04;;;;;;;;;;;25.50;85.90;;;;;;5076826;28;19909;-71
2022/07/20 09:42:40;;;;;;;;;;;25.50;85.90;;;;;;5077145;28;19908;-70
2022/07/20 09:45:24;;;;;;;;;;;25.50;85.90;;;;;;5077071;28;19915;-70
2022/07/20 09:48:00;;;;;;;;;;;25.50;85.90;;;;;;5076866;28;20003;-70
2022/07/20 09:50:26;;;;;;;;;;;25.50;85.90;;;;;;5077121;28;19930;-69
2022/07/20 09:52:52;;;;;;;;;;;25.50;85.90;;;;;;5076978;28;19920;-69
2022/07/20 09:55:17;;;;;;;;;;;25.50;85.90;;;;;;5077229;28;19912;-69
2022/07/20 09:57:43;;;;;;;;;;;25.50;85.90;;;;;;5076449;28;20007;-69
2022/07/20 10:00:09;;;;;;;;;;;25.50;85.90;;;;;;5076748;28;19924;-69
2022/07/20 10:02:34;;;;;;;;;;;25.50;85.90;;;;;;5058626;28;19908;-70
2022/07/20 10:05:02;;;;;;;;;;;25.50;85.90;;;;;;5075553;28;20276;-70
2022/07/20 10:07:28;;;;;;;;;;;25.50;85.90;;;;;;5076623;28;19916;-70
2022/07/20 10:09:53;;;;;;;;;;;25.50;86.30;;;;;;5076074;28;19913;-69
2022/07/20 10:12:19;;;;;;;;;;;25.50;85.90;;;;;;5076845;28;19919;-70
2022/07/20 10:14:46;;;;;;;;;;;25.50;85.90;;;;;;5076626;28;19919;-70
2022/07/20 10:17:11;;;;;;;;;;;25.50;86.00;;;;;;5076197;28;19908;-70
2022/07/20 10:19:46;;;;;;;;;;;25.50;86.00;;;;;;5076348;28;20323;-70
2022/07/20 10:22:11;;;;;;;;;;;25.50;86.00;;;;;;5076111;28;20343;-70
2022/07/20 10:24:39;;;;;;;;;;;25.50;85.90;;;;;;5076159;28;19951;-70
2022/07/20 10:27:07;;;;;;;;;;;25.50;85.90;;;;;;5058069;28;19958;-70
2022/07/20 10:29:34;;;;;;;;;;;25.60;86.00;;;;;;5057949;28;20027;-69
2022/07/20 10:32:20;;;;;;;;;;;25.50;86.00;;;;;;5075897;28;19965;-69
2022/07/20 10:34:59;;;;;;;;;;;25.50;86.00;;;;;;5075364;28;19912;-69
2022/07/20 10:37:38;;;;;;;;;;;25.60;86.00;;;;;;5075722;28;19943;-69
2022/07/20 10:40:06;;;;;;;;;;;25.60;86.00;;;;;;5075590;28;19995;-69
2022/07/20 10:42:43;;;;;;;;;;;25.60;86.00;;;;;;5058048;28;19912;-70
2022/07/20 10:45:20;;;;;;;;;;;25.60;86.00;;;;;;5075833;28;19909;-70
2022/07/20 10:47:48;;;;;;;;;;;25.60;86.00;;;;;;5075886;28;19908;-69
2022/07/20 10:50:19;;;;;;;;;;;25.60;86.00;;;;;;5075614;28;19912;-69
2022/07/20 10:52:46;;;;;;;;;;;25.60;86.10;;;;;;5075870;28;19912;-69
2022/07/20 10:55:30;;;;;;;;;;;25.60;86.00;;;;;;5075762;28;19919;-70
2022/07/20 10:57:56;;;;;;;;;;;25.50;86.00;;;;;;5057643;28;19962;-69
2022/07/20 11:00:28;;;;;;;;;;;25.60;86.10;;;;;;5057224;28;19920;-69
2022/07/20 11:02:53;;;;;;;;;;;25.50;86.00;;;;;;5075230;28;20444;-69
2022/07/20 11:05:20;;;;;;;;;;;25.60;86.10;;;;;;5057394;28;19908;-69
2022/07/20 11:07:45;;;;;;;;;;;25.60;86.10;;;;;;5075375;28;19933;-68
2022/07/20 11:10:31;;;;;;;;;;;25.60;86.10;;;;;;5075332;28;20002;-69
2022/07/20 11:13:02;;;;;;;;;;;25.60;86.10;;;;;;5074808;28;19913;-69
2022/07/20 11:15:47;;;;;;;;;;;25.50;86.00;;;;;;5057447;28;19912;-69
2022/07/20 11:18:14;;;;;;;;;;;25.50;86.00;;;;;;5075394;28;19916;-70
2022/07/20 11:20:56;;;;;;;;;;;25.60;86.10;;;;;;5075289;28;19909;-70
2022/07/20 11:23:23;;;;;;;;;;;25.60;86.10;;;;;;5075344;28;19967;-69
2022/07/20 11:25:48;;;;;;;;;;;25.60;86.10;;;;;;5075060;28;19915;-69
2022/07/20 11:28:16;;;;;;;;;;;25.60;86.10;;;;;;5075069;28;19909;-69
2022/07/20 11:30:42;;;;;;;;;;;25.60;86.10;;;;;;5075071;28;19916;-69
2022/07/20 11:33:08;;;;;;;;;;;25.60;86.10;;;;;;5057077;28;19912;-69
2022/07/20 11:35:33;;;;;;;;;;;25.60;86.10;;;;;;5074787;28;19962;-70
2022/07/20 11:37:59;;;;;;;;;;;25.60;86.10;;;;;;5075332;28;19916;-69
2022/07/20 11:40:24;;;;;;;;;;;25.60;86.10;;;;;;5074904;28;20351;-70
2022/07/20 11:43:06;;;;;;;;;;;25.60;86.10;;;;;;5057078;28;19956;-70
2022/07/20 11:45:32;;;;;;;;;;;25.60;86.20;;;;;;5074540;28;19940;-70
2022/07/20 11:47:57;;;;;;;;;;;25.60;86.10;;;;;;5074632;28;19916;-69
2022/07/20 11:50:30;;;;;;;;;;;25.60;86.10;;;;;;5074331;28;20397;-70
2022/07/20 11:52:55;;;;;;;;;;;25.60;86.10;;;;;;5057002;28;19912;-69
2022/07/20 11:55:32;;;;;;;;;;;25.60;86.20;;;;;;5074572;28;19973;-69
2022/07/20 11:57:57;;;;;;;;;;;25.60;86.10;;;;;;5074494;28;19915;-69
2022/07/20 12:00:25;;;;;;;;;;;25.60;86.10;;;;;;5074199;28;20352;-69
2022/07/20 12:02:51;;;;;;;;;;;25.60;86.10;;;;;;5074189;28;19909;-68
2022/07/20 12:05:16;;;;;;;;;;;25.60;86.10;;;;;;5074044;28;20436;-68
2022/07/20 12:10:26;;;;;;;;;;;25.60;86.10;;;;;;5074514;28;19916;-68
2022/07/20 12:13:05;;;;;;;;;;;25.60;86.10;;;;;;5073894;28;19913;-69
2022/07/20 12:15:31;;;;;;;;;;;25.60;86.10;;;;;;5056792;28;19995;-69
2022/07/20 12:17:56;;;;;;;;;;;25.60;86.20;;;;;;5073916;28;19915;-70
2022/07/20 12:20:23;;;;;;;;;;;25.60;86.10;;;;;;5074332;28;19908;-69
2022/07/20 12:22:49;;;;;;;;;;;25.60;86.10;;;;;;5074065;28;19952;-69
2022/07/20 12:25:15;;;;;;;;;;;25.60;86.10;;;;;;5056325;28;20318;-68
2022/07/20 12:27:42;;;;;;;;;;;25.60;86.10;;;;;;5073854;28;19912;-70
2022/07/20 12:30:23;;;;;;;;;;;25.60;86.20;;;;;;5056105;28;20329;-70
2022/07/20 12:33:01;;;;;;;;;;;25.60;86.20;;;;;;5055889;28;20001;-69
2022/07/20 12:35:26;;;;;;;;;;;25.60;86.10;;;;;;5056038;28;19975;-70
2022/07/20 12:37:53;;;;;;;;;;;25.60;86.10;;;;;;5073977;28;19908;-69
2022/07/20 12:40:31;;;;;;;;;;;25.60;86.10;;;;;;5073764;28;20351;-70
2022/07/20 12:42:57;;;;;;;;;;;25.60;86.10;;;;;;5073900;28;20004;-69
2022/07/20 12:45:22;;;;;;;;;;;25.60;86.10;;;;;;5073780;28;19960;-70
2022/07/20 12:47:48;;;;;;;;;;;25.60;86.10;;;;;;5055678;28;20236;-69
2022/07/20 12:50:13;;;;;;;;;;;25.60;86.10;;;;;;5073309;28;19919;-70
2022/07/20 12:52:39;;;;;;;;;;;25.60;86.20;;;;;;5073711;28;19960;-70
2022/07/20 12:55:04;;;;;;;;;;;25.60;86.20;;;;;;5073492;28;19913;-70
2022/07/20 12:57:30;;;;;;;;;;;25.70;86.20;;;;;;5073293;28;20003;-69
2022/07/20 12:59:55;;;;;;;;;;;25.70;86.20;;;;;;5073224;28;19920;-70
2022/07/20 13:02:21;;;;;;;;;;;25.60;86.10;;;;;;5055506;28;20381;-69
2022/07/20 13:04:46;;;;;;;;;;;25.70;86.20;;;;;;5073412;28;19908;-69
2022/07/20 13:07:12;;;;;;;;;;;25.60;86.10;;;;;;5073642;28;20355;-70
2022/07/20 13:09:38;;;;;;;;;;;25.60;86.20;;;;;;5055500;28;19915;-69
2022/07/20 13:12:03;;;;;;;;;;;25.70;86.20;;;;;;5057020;28;19913;-69
2022/07/20 13:14:29;;;;;;;;;;;25.70;86.20;;;;;;5077749;28;19913;-70
2022/07/20 13:16:54;;;;;;;;;;;25.70;86.20;;;;;;5077475;28;19915;-70
2022/07/20 13:19:20;;;;;;;;;;;25.70;86.20;;;;;;5059497;28;20001;-70
2022/07/20 13:21:46;;;;;;;;;;;25.70;86.20;;;;;;5077487;28;19947;-69
2022/07/20 13:24:13;;;;;;;;;;;25.70;86.20;;;;;;5059578;28;19959;-70
2022/07/20 13:26:42;;;;;;;;;;;25.70;86.20;;;;;;5076959;28;19930;-70
2022/07/20 13:29:07;;;;;;;;;;;25.70;86.20;;;;;;5077421;28;19915;-70
2022/07/20 13:31:33;;;;;;;;;;;25.70;86.20;;;;;;5076967;28;20003;-70
2022/07/20 13:33:59;;;;;;;;;;;25.70;86.10;;;;;;5077151;28;19913;-70
2022/07/20 13:36:25;;;;;;;;;;;25.70;86.20;;;;;;5076850;28;19912;-70
2022/07/20 13:38:52;;;;;;;;;;;25.70;86.20;;;;;;5076732;28;19977;-69
2022/07/20 13:41:21;;;;;;;;;;;25.70;86.20;;;;;;5077172;28;20010;-69
2022/07/20 13:43:47;;;;;;;;;;;25.70;86.20;;;;;;5076975;28;20279;-68
2022/07/20 13:46:13;;;;;;;;;;;25.70;86.20;;;;;;5077445;28;20026;-70
2022/07/20 13:48:39;;;;;;;;;;;25.70;86.20;;;;;;5077360;28;20240;-69
2022/07/20 13:51:04;;;;;;;;;;;25.70;86.10;;;;;;5077116;28;19995;-69
2022/07/20 13:53:30;;;;;;;;;;;25.70;86.20;;;;;;5059068;28;20021;-70
2022/07/20 13:55:55;;;;;;;;;;;25.70;86.20;;;;;;5076498;28;19912;-70
2022/07/20 13:58:21;;;;;;;;;;;25.70;86.20;;;;;;5058823;28;20279;-69
2022/07/20 14:00:47;;;;;;;;;;;25.70;86.10;;;;;;5076880;28;20011;-69
2022/07/20 14:03:13;;;;;;;;;;;25.70;86.20;;;;;;5076392;28;20113;-70
2022/07/20 14:05:38;;;;;;;;;;;25.70;86.20;;;;;;5076581;28;20315;-69
2022/07/20 14:08:04;;;;;;;;;;;25.70;86.20;;;;;;5058767;28;20401;-70
2022/07/20 14:10:30;;;;;;;;;;;25.70;86.20;;;;;;5058796;28;19915;-70
2022/07/20 14:12:55;;;;;;;;;;;25.70;86.20;;;;;;5058448;28;19913;-70
2022/07/20 14:15:21;;;;;;;;;;;25.70;86.10;;;;;;5058562;28;19962;-70
2022/07/20 14:17:46;;;;;;;;;;;25.70;86.20;;;;;;5076243;28;19995;-70
2022/07/20 14:20:12;;;;;;;;;;;25.70;86.10;;;;;;5076136;28;19908;-70